createdAt,value
2023-04-27T00:00:19.097Z,101541.47
2023-04-27T00:02:46.824Z,101533.66
2023-04-27T00:05:14.021Z,101533.59
2023-04-27T00:07:41.338Z,101534.38
2023-04-27T00:10:09.137Z,101534.31
2023-04-27T00:12:36.005Z,101532.47
2023-04-27T00:15:02.968Z,101537.63
2023-04-27T00:17:29.883Z,101528.88
2023-04-27T00:19:56.778Z,101526.13
2023-04-27T00:22:23.625Z,101537.38
2023-04-27T00:24:50.449Z,101538.19
2023-04-27T00:27:17.294Z,101536.38
2023-04-27T00:29:44.339Z,101546.69
2023-04-27T00:32:11.537Z,101541.38
2023-04-27T00:34:38.925Z,101546.50
2023-04-27T00:37:06.076Z,101548.16
2023-04-27T00:39:35.558Z,101547.22
2023-04-27T00:42:02.445Z,101550.56
2023-04-27T00:44:29.311Z,101553.91
2023-04-27T00:46:56.572Z,101555.63
2023-04-27T00:49:24.175Z,101559.00
2023-04-27T00:51:51.517Z,101552.81
2023-04-27T00:54:21.228Z,101552.66
2023-04-27T00:56:51.968Z,101558.72
2023-04-27T00:59:19.860Z,101562.06
2023-04-27T01:01:47.689Z,101560.91
2023-04-27T01:04:14.937Z,101565.28
2023-04-27T01:06:41.981Z,101562.56
2023-04-27T01:09:09.295Z,101559.84
2023-04-27T01:11:36.463Z,101553.53
2023-04-27T01:14:07.548Z,101562.22
2023-04-27T01:16:35.386Z,101568.84
2023-04-27T01:19:02.435Z,101571.50
2023-04-27T01:21:29.315Z,101567.97
2023-04-27T01:23:56.169Z,101574.78
2023-04-27T01:26:23.094Z,101566.97
2023-04-27T01:28:49.952Z,101565.97
2023-04-27T01:31:16.829Z,101566.81
2023-04-27T01:33:43.729Z,101559.75
2023-04-27T01:36:11.113Z,101561.50
2023-04-27T01:38:37.995Z,101559.69
2023-04-27T01:41:05.882Z,101569.03
2023-04-27T01:43:32.731Z,101570.66
2023-04-27T01:46:13.699Z,101570.56
2023-04-27T01:48:42.407Z,101584.28
2023-04-27T01:51:11.147Z,101580.78
2023-04-27T01:53:38.088Z,101578.13
2023-04-27T01:56:06.687Z,101578.88
2023-04-27T01:58:33.542Z,101580.50
2023-04-27T02:01:00.413Z,101587.31
2023-04-27T02:03:29.444Z,101584.69
2023-04-27T02:05:56.448Z,101591.50
2023-04-27T02:08:23.296Z,101581.09
2023-04-27T02:10:50.163Z,101593.88
2023-04-27T02:13:17.642Z,101586.69
2023-04-27T02:15:44.560Z,101594.56
2023-04-27T02:18:11.450Z,101596.28
2023-04-27T02:20:38.369Z,101593.66
2023-04-27T02:23:05.216Z,101603.91
2023-04-27T02:25:32.092Z,101604.78
2023-04-27T02:27:58.934Z,101601.25
2023-04-27T02:30:26.244Z,101601.22
2023-04-27T02:33:00.740Z,101608.00
2023-04-27T02:35:27.699Z,101599.31
2023-04-27T02:37:54.551Z,101602.72
2023-04-27T02:40:21.473Z,101611.25
2023-04-27T02:42:48.316Z,101601.75
2023-04-27T02:45:15.187Z,101605.16
2023-04-27T02:47:42.075Z,101612.84
2023-04-27T02:50:09.730Z,101605.00
2023-04-27T02:52:36.880Z,101599.75
2023-04-27T02:55:03.763Z,101608.38
2023-04-27T02:57:30.713Z,101610.91
2023-04-27T02:59:57.629Z,101614.09
2023-04-27T03:02:24.655Z,101614.16
2023-04-27T03:04:55.274Z,101613.09
2023-04-27T03:07:22.764Z,101627.00
2023-04-27T03:09:49.641Z,101620.91
2023-04-27T03:12:16.531Z,101627.75
2023-04-27T03:14:43.419Z,101619.13
2023-04-27T03:17:10.463Z,101621.66
2023-04-27T03:19:37.360Z,101623.34
2023-04-27T03:22:04.242Z,101621.59
2023-04-27T03:24:31.141Z,101624.91
2023-04-27T03:26:58.375Z,101628.31
2023-04-27T03:29:25.306Z,101634.28
2023-04-27T03:31:52.249Z,101627.38
2023-04-27T03:34:20.923Z,101637.69
2023-04-27T03:36:47.813Z,101634.03
2023-04-27T03:39:15.019Z,101641.91
2023-04-27T03:41:42.388Z,101646.19
2023-04-27T03:44:10.745Z,101645.44
2023-04-27T03:46:37.691Z,101644.47
2023-04-27T03:49:04.610Z,101645.16
2023-04-27T03:51:33.234Z,101649.66
2023-04-27T03:54:00.416Z,101643.59
2023-04-27T03:56:27.851Z,101642.78
2023-04-27T03:58:55.949Z,101642.03
2023-04-27T04:01:29.442Z,101647.31
2023-04-27T04:03:56.600Z,101646.72
2023-04-27T04:06:23.712Z,101649.47
2023-04-27T04:08:50.687Z,101644.63
2023-04-27T04:11:18.018Z,101649.38
2023-04-27T04:13:45.163Z,101646.53
2023-04-27T04:16:12.196Z,101653.13
2023-04-27T04:18:39.751Z,101658.13
2023-04-27T04:21:06.821Z,101651.91
2023-04-27T04:23:34.764Z,101659.59
2023-04-27T04:26:02.563Z,101659.53
2023-04-27T04:28:33.851Z,101671.38
2023-04-27T04:31:06.502Z,101665.00
2023-04-27T04:33:33.655Z,101666.28
2023-04-27T04:36:04.396Z,101657.56
2023-04-27T04:38:32.943Z,101666.66
2023-04-27T04:41:01.100Z,101674.50
2023-04-27T04:43:28.478Z,101673.81
2023-04-27T04:45:55.419Z,101664.22
2023-04-27T04:48:22.315Z,101668.88
2023-04-27T04:50:49.192Z,101671.66
2023-04-27T04:53:16.120Z,101676.06
2023-04-27T04:55:43.082Z,101673.47
2023-04-27T04:58:10.738Z,101680.28
2023-04-27T05:00:38.168Z,101716.97
2023-04-27T05:03:07.419Z,101679.25
2023-04-27T05:05:34.724Z,101687.03
2023-04-27T05:08:01.613Z,101690.38
2023-04-27T05:10:28.521Z,101696.25
2023-04-27T05:12:55.403Z,101677.22
2023-04-27T05:15:22.290Z,101676.22
2023-04-27T05:17:49.242Z,101682.34
2023-04-27T05:20:16.390Z,101690.13
2023-04-27T05:22:43.254Z,101693.53
2023-04-27T05:25:10.122Z,101691.81
2023-04-27T05:27:36.962Z,101696.94
2023-04-27T05:30:03.901Z,101696.94
2023-04-27T05:32:30.823Z,101691.72
2023-04-27T05:34:57.737Z,101697.78
2023-04-27T05:37:24.604Z,101697.88
2023-04-27T05:39:51.464Z,101702.34
2023-04-27T05:42:18.324Z,101699.00
2023-04-27T05:44:45.232Z,101704.34
2023-04-27T05:47:12.124Z,101704.47
2023-04-27T05:49:39.155Z,101708.94
2023-04-27T05:52:06.027Z,101704.75
2023-04-27T05:54:32.929Z,101705.75
2023-04-27T05:56:59.799Z,101699.78
2023-04-27T05:59:27.476Z,101703.41
2023-04-27T06:01:54.405Z,101677.25
2023-04-27T06:04:21.430Z,101704.38
2023-04-27T06:06:48.637Z,101707.25
2023-04-27T06:09:15.755Z,101704.03
2023-04-27T06:11:43.536Z,101715.50
2023-04-27T06:14:10.471Z,101712.19
2023-04-27T06:16:37.370Z,101715.84
2023-04-27T06:19:04.261Z,101714.28
2023-04-27T06:21:33.691Z,101715.38
2023-04-27T06:24:01.136Z,101719.06
2023-04-27T06:26:28.261Z,101724.44
2023-04-27T06:28:56.216Z,101714.25
2023-04-27T06:31:23.244Z,101719.72
2023-04-27T06:33:50.214Z,101715.66
2023-04-27T06:36:17.207Z,101722.84
2023-04-27T06:38:44.180Z,101718.72
2023-04-27T06:41:11.158Z,101727.63
2023-04-27T06:43:38.263Z,101725.31
2023-04-27T06:46:06.708Z,101724.56
2023-04-27T06:48:33.612Z,101731.81
2023-04-27T06:51:00.656Z,101728.53
2023-04-27T06:53:27.501Z,101732.19
2023-04-27T06:55:54.357Z,101731.53
2023-04-27T06:58:22.137Z,101727.38
2023-04-27T07:00:49.346Z,101719.63
2023-04-27T07:03:16.435Z,101733.72
2023-04-27T07:05:43.485Z,101735.66
2023-04-27T07:08:10.556Z,101729.78
2023-04-27T07:10:37.501Z,101736.00
2023-04-27T07:13:05.524Z,101740.47
2023-04-27T07:15:34.331Z,101736.34
2023-04-27T07:18:01.306Z,101738.28
2023-04-27T07:20:28.231Z,101726.28
2023-04-27T07:22:56.032Z,101732.47
2023-04-27T07:25:23.001Z,101730.13
2023-04-27T07:27:49.913Z,101725.00
2023-04-27T07:30:17.863Z,101722.53
2023-04-27T07:32:44.895Z,101732.47
2023-04-27T07:35:11.843Z,101735.25
2023-04-27T07:37:38.735Z,101736.31
2023-04-27T07:40:14.778Z,101730.34
2023-04-27T07:42:46.269Z,101730.41
2023-04-27T07:45:14.022Z,101742.91
2023-04-27T07:47:40.937Z,101745.63
2023-04-27T07:50:08.654Z,101745.81
2023-04-27T07:52:35.973Z,101736.31
2023-04-27T07:55:03.868Z,101739.09
2023-04-27T07:57:30.769Z,101747.88
2023-04-27T07:59:57.864Z,101753.16
2023-04-27T08:02:27.057Z,101742.78
2023-04-27T08:04:54.213Z,101748.97
2023-04-27T08:07:21.705Z,101761.22
2023-04-27T08:09:52.576Z,101758.69
2023-04-27T08:12:19.470Z,101763.25
2023-04-27T08:14:47.185Z,101755.59
2023-04-27T08:17:14.068Z,101754.88
2023-04-27T08:19:41.498Z,101748.03
2023-04-27T08:22:08.508Z,101743.84
2023-04-27T08:24:36.305Z,101740.56
2023-04-27T08:27:06.301Z,101755.41
2023-04-27T08:29:33.577Z,101743.44
2023-04-27T08:32:03.063Z,101741.00
2023-04-27T08:34:30.973Z,101761.25
2023-04-27T08:36:58.030Z,101759.59
2023-04-27T08:39:25.542Z,101753.53
2023-04-27T08:41:52.466Z,101751.88
2023-04-27T08:44:19.342Z,101747.66
2023-04-27T08:46:46.321Z,101751.31
2023-04-27T08:49:15.948Z,101755.81
2023-04-27T08:51:43.524Z,101758.53
2023-04-27T08:54:10.372Z,101757.75
2023-04-27T08:56:37.202Z,101750.03
2023-04-27T08:59:12.890Z,101754.38
2023-04-27T09:01:48.864Z,101757.84
2023-04-27T09:04:17.786Z,101754.50
2023-04-27T09:06:44.883Z,101751.16
2023-04-27T09:09:23.442Z,101742.53
2023-04-27T09:11:51.022Z,101753.06
2023-04-27T09:14:21.127Z,101748.75
2023-04-27T09:16:59.613Z,101747.16
2023-04-27T09:19:30.744Z,101741.22
2023-04-27T09:22:23.983Z,101745.69
2023-04-27T09:24:52.484Z,101741.41
2023-04-27T09:27:23.397Z,101739.72
2023-04-27T09:29:50.287Z,101744.28
2023-04-27T09:32:23.360Z,101746.97
2023-04-27T09:34:50.293Z,101746.97
2023-04-27T09:37:17.263Z,101742.63
2023-04-27T09:39:45.830Z,101746.97
2023-04-27T09:42:13.376Z,101738.31
2023-04-27T09:44:40.532Z,101741.94
2023-04-27T09:47:07.847Z,101735.94
2023-04-27T09:49:35.907Z,101724.63
2023-04-27T09:52:02.777Z,101721.28
2023-04-27T09:54:32.259Z,101723.94
2023-04-27T09:57:45.583Z,101712.66
2023-04-27T10:00:36.872Z,101711.84
2023-04-27T10:03:24.040Z,101718.03
2023-04-27T10:06:34.654Z,101725.06
2023-04-27T10:09:06.381Z,101723.38
2023-04-27T10:11:41.733Z,101722.50
2023-04-27T10:14:11.266Z,101723.38
2023-04-27T10:16:55.416Z,101732.91
2023-04-27T10:19:24.396Z,101726.78
2023-04-27T10:21:53.003Z,101726.66
2023-04-27T10:24:20.030Z,101730.06
2023-04-27T10:26:48.123Z,101728.31
2023-04-27T10:29:16.489Z,101726.59
2023-04-27T10:31:48.715Z,101734.41
2023-04-27T10:34:21.384Z,101726.56
2023-04-27T10:36:48.528Z,101714.28
2023-04-27T10:39:29.892Z,101718.75
2023-04-27T10:42:03.466Z,101723.25
2023-04-27T10:44:32.432Z,101714.59
2023-04-27T10:47:02.575Z,101720.81
2023-04-27T10:49:30.706Z,101713.06
2023-04-27T10:51:59.683Z,101718.38
2023-04-27T10:54:29.875Z,101721.94
2023-04-27T10:57:07.927Z,101719.34
2023-04-27T10:59:47.382Z,101722.88
2023-04-27T11:02:14.325Z,101722.00
2023-04-27T11:04:41.788Z,101722.84
2023-04-27T11:07:10.287Z,101721.13
2023-04-27T11:09:38.728Z,101731.63
2023-04-27T11:12:12.241Z,101729.00
2023-04-27T11:14:39.155Z,101736.00
2023-04-27T11:17:06.338Z,101740.41
2023-04-27T11:19:33.286Z,101735.16
2023-04-27T11:22:07.019Z,101737.78
2023-04-27T11:24:33.991Z,101744.78
2023-04-27T11:27:00.911Z,101738.69
2023-04-27T11:29:38.991Z,101739.56
2023-04-27T11:32:06.215Z,101739.56
2023-04-27T11:34:38.861Z,101749.19
2023-04-27T11:37:17.844Z,101746.53
2023-04-27T11:39:45.809Z,101739.59
2023-04-27T11:42:28.509Z,101738.69
2023-04-27T11:45:01.102Z,101746.56
2023-04-27T11:47:30.603Z,101738.72
2023-04-27T11:50:00.793Z,101742.22
2023-04-27T11:52:39.969Z,101751.84
2023-04-27T11:55:09.255Z,101754.50
2023-04-27T11:57:36.734Z,101751.88
2023-04-27T12:00:11.001Z,101748.38
2023-04-27T12:02:42.284Z,101738.78
2023-04-27T12:05:10.125Z,101736.22
2023-04-27T12:07:37.330Z,101749.44
2023-04-27T12:10:04.891Z,101756.47
2023-04-27T12:12:32.019Z,101754.78
2023-04-27T12:14:58.915Z,101760.91
2023-04-27T12:17:25.797Z,101757.44
2023-04-27T12:19:52.684Z,101762.69
2023-04-27T12:22:20.953Z,101760.09
2023-04-27T12:24:48.029Z,101761.00
2023-04-27T12:27:14.904Z,101755.78
2023-04-27T12:29:41.947Z,101761.03
2023-04-27T12:32:08.856Z,101754.94
2023-04-27T12:34:35.894Z,101769.78
2023-04-27T12:37:02.757Z,101748.78
2023-04-27T12:39:30.280Z,101758.41
2023-04-27T12:41:58.268Z,101752.31
2023-04-27T12:44:25.187Z,101744.44
2023-04-27T12:46:52.208Z,101749.69
2023-04-27T12:49:19.150Z,101744.44
2023-04-27T12:51:47.865Z,101746.19
2023-04-27T12:54:14.998Z,101754.94
2023-04-27T12:56:42.275Z,101750.59
2023-04-27T12:59:09.375Z,101746.22
2023-04-27T13:01:36.632Z,101741.88
2023-04-27T13:04:08.589Z,101749.75
2023-04-27T13:06:35.598Z,101745.38
2023-04-27T13:09:02.701Z,101749.75
2023-04-27T13:11:29.624Z,101752.38
2023-04-27T13:13:56.530Z,101754.06
2023-04-27T13:16:25.374Z,101762.81
2023-04-27T13:18:53.337Z,101760.19
2023-04-27T13:21:20.442Z,101761.94
2023-04-27T13:23:47.938Z,101766.31
2023-04-27T13:26:16.222Z,101755.78
2023-04-27T13:28:43.569Z,101759.31
2023-04-27T13:31:10.817Z,101756.69
2023-04-27T13:33:44.687Z,101755.78
2023-04-27T13:36:12.992Z,101750.56
2023-04-27T13:38:40.365Z,101748.81
2023-04-27T13:41:08.110Z,101753.22
2023-04-27T13:43:35.576Z,101761.09
2023-04-27T13:46:02.976Z,101758.47
2023-04-27T13:48:30.920Z,101748.81
2023-04-27T13:50:58.430Z,101751.47
2023-04-27T13:53:25.843Z,101744.50
2023-04-27T13:55:54.684Z,101753.25
2023-04-27T13:58:23.711Z,101758.50
2023-04-27T14:00:52.861Z,101752.38
2023-04-27T14:03:20.218Z,101733.13
2023-04-27T14:05:48.792Z,101741.88
2023-04-27T14:08:15.872Z,101741.88
2023-04-27T14:10:45.078Z,101739.25
2023-04-27T14:13:12.509Z,101756.75
2023-04-27T14:15:39.384Z,101744.47
2023-04-27T14:18:08.027Z,101755.88
2023-04-27T14:20:36.255Z,101744.50
2023-04-27T14:23:04.892Z,101745.38
2023-04-27T14:25:35.162Z,101750.63
2023-04-27T14:28:05.188Z,101741.00
2023-04-27T14:30:33.206Z,101753.25
2023-04-27T14:33:00.179Z,101759.38
2023-04-27T14:35:28.040Z,101754.13
2023-04-27T14:37:57.053Z,101747.97
2023-04-27T14:40:24.146Z,101752.34
2023-04-27T14:42:51.040Z,101747.97
2023-04-27T14:45:18.877Z,101737.47
2023-04-27T14:47:45.930Z,101738.38
2023-04-27T14:50:13.124Z,101748.88
2023-04-27T14:52:40.084Z,101751.50
2023-04-27T14:55:07.809Z,101744.53
2023-04-27T14:57:35.405Z,101751.50
2023-04-27T15:00:04.880Z,101746.25
2023-04-27T15:02:33.826Z,101742.72
2023-04-27T15:05:01.260Z,101736.63
2023-04-27T15:07:28.174Z,101738.34
2023-04-27T15:09:55.431Z,101729.59
2023-04-27T15:12:22.333Z,101733.97
2023-04-27T15:14:51.564Z,101735.69
2023-04-27T15:17:18.577Z,101736.56
2023-04-27T15:19:45.488Z,101734.81
2023-04-27T15:22:13.476Z,101723.44
2023-04-27T15:24:40.726Z,101737.44
2023-04-27T15:27:09.734Z,101733.94
2023-04-27T15:29:37.467Z,101738.31
2023-04-27T15:32:04.581Z,101735.69
2023-04-27T15:34:31.872Z,101732.19
2023-04-27T15:36:58.776Z,101743.56
2023-04-27T15:39:27.226Z,101748.81
2023-04-27T15:41:54.164Z,101731.31
2023-04-27T15:44:21.092Z,101741.81
2023-04-27T15:46:47.993Z,101738.31
2023-04-27T15:49:15.096Z,101733.09
2023-04-27T15:51:42.251Z,101735.69
2023-04-27T15:54:09.173Z,101737.47
2023-04-27T15:56:36.070Z,101730.44
2023-04-27T15:59:04.511Z,101736.56
2023-04-27T16:01:31.613Z,101731.31
2023-04-27T16:03:58.656Z,101734.81
2023-04-27T16:06:34.583Z,101734.81
2023-04-27T16:09:03.411Z,101728.69
2023-04-27T16:11:31.508Z,101731.31
2023-04-27T16:13:59.458Z,101732.19
2023-04-27T16:16:26.901Z,101726.91
2023-04-27T16:18:53.956Z,101723.41
2023-04-27T16:21:21.795Z,101724.28
2023-04-27T16:23:48.837Z,101714.69
2023-04-27T16:26:16.095Z,101729.53
2023-04-27T16:28:43.456Z,101722.56
2023-04-27T16:31:10.838Z,101719.94
2023-04-27T16:33:37.793Z,101720.81
2023-04-27T16:36:05.068Z,101721.69
2023-04-27T16:38:31.959Z,101718.19
2023-04-27T16:40:58.909Z,101719.91
2023-04-27T16:43:26.114Z,101729.53
2023-04-27T16:45:53.042Z,101725.16
2023-04-27T16:48:19.955Z,101726.06
2023-04-27T16:50:47.301Z,101726.91
2023-04-27T16:53:14.970Z,101722.50
2023-04-27T16:55:41.941Z,101732.16
2023-04-27T16:58:08.844Z,101728.63
2023-04-27T17:00:35.983Z,101732.09
2023-04-27T17:03:03.066Z,101729.47
2023-04-27T17:05:29.999Z,101737.31
2023-04-27T17:07:56.898Z,101737.28
2023-04-27T17:10:23.858Z,101737.25
2023-04-27T17:12:51.203Z,101744.22
2023-04-27T17:15:18.486Z,101737.22
2023-04-27T17:17:45.558Z,101741.53
2023-04-27T17:20:13.278Z,101738.84
2023-04-27T17:22:40.368Z,101730.06
2023-04-27T17:25:08.588Z,101736.16
2023-04-27T17:27:35.528Z,101741.38
2023-04-27T17:30:02.587Z,101738.72
2023-04-27T17:32:29.556Z,101742.19
2023-04-27T17:34:57.527Z,101735.13
2023-04-27T17:37:24.465Z,101746.44
2023-04-27T17:39:52.933Z,101744.66
2023-04-27T17:42:20.105Z,101749.81
2023-04-27T17:44:46.968Z,101741.94
2023-04-27T17:47:13.993Z,101751.50
2023-04-27T17:49:41.047Z,101740.16
2023-04-27T17:52:07.935Z,101747.94
2023-04-27T17:54:34.798Z,101742.66
2023-04-27T17:57:02.030Z,101748.72
2023-04-27T17:59:28.957Z,101746.91
2023-04-27T18:01:55.983Z,101746.91
2023-04-27T18:04:23.192Z,101753.84
2023-04-27T18:06:50.399Z,101752.09
2023-04-27T18:09:17.567Z,101759.00
2023-04-27T18:11:44.482Z,101767.63
2023-04-27T18:14:11.466Z,101772.81
2023-04-27T18:16:38.396Z,101773.66
2023-04-27T18:19:05.335Z,101771.00
2023-04-27T18:21:32.720Z,101773.59
2023-04-27T18:23:59.644Z,101770.06
2023-04-27T18:26:26.719Z,101781.38
2023-04-27T18:28:53.714Z,101785.69
2023-04-27T18:31:20.779Z,101778.69
2023-04-27T18:33:47.823Z,101777.66
2023-04-27T18:36:14.721Z,101782.97
2023-04-27T18:38:41.680Z,101792.50
2023-04-27T18:41:08.609Z,101790.75
2023-04-27T18:43:38.744Z,101793.34
2023-04-27T18:46:05.988Z,101803.72
2023-04-27T18:48:32.914Z,101794.16
2023-04-27T18:50:59.884Z,101805.44
2023-04-27T18:53:27.872Z,101807.19
2023-04-27T18:55:54.951Z,101801.94
2023-04-27T18:58:21.873Z,101811.47
2023-04-27T19:00:48.749Z,101808.81
2023-04-27T19:03:15.828Z,101808.81
2023-04-27T19:05:43.246Z,101799.09
2023-04-27T19:08:10.408Z,101808.75
2023-04-27T19:10:37.409Z,101810.50
2023-04-27T19:13:04.296Z,101807.88
2023-04-27T19:15:31.253Z,101816.59
2023-04-27T19:18:06.846Z,101818.34
2023-04-27T19:20:37.274Z,101818.31
2023-04-27T19:23:05.157Z,101814.00
2023-04-27T19:25:32.107Z,101812.25
2023-04-27T19:27:59.069Z,101796.47
2023-04-27T19:30:26.031Z,101808.75
2023-04-27T19:32:53.021Z,101812.22
2023-04-27T19:35:20.480Z,101813.06
2023-04-27T19:37:47.411Z,101813.03
2023-04-27T19:40:14.959Z,101819.09
2023-04-27T19:42:41.936Z,101815.50
2023-04-27T19:45:09.081Z,101816.31
2023-04-27T19:47:36.234Z,101812.78
2023-04-27T19:50:04.773Z,101810.91
2023-04-27T19:52:31.802Z,101808.31
2023-04-27T19:54:59.886Z,101813.47
2023-04-27T19:57:26.782Z,101809.00
2023-04-27T19:59:53.696Z,101817.69
2023-04-27T20:02:20.732Z,101809.78
2023-04-27T20:04:47.905Z,101813.19
2023-04-27T20:07:15.015Z,101814.84
2023-04-27T20:09:41.927Z,101807.78
2023-04-27T20:12:19.440Z,101808.59
2023-04-27T20:14:55.772Z,101811.97
2023-04-27T20:17:25.597Z,101815.41
2023-04-27T20:19:56.122Z,101810.13
2023-04-27T20:22:23.869Z,101811.78
2023-04-27T20:24:50.896Z,101805.63
2023-04-27T20:27:17.871Z,101816.84
2023-04-27T20:29:46.547Z,101805.47
2023-04-27T20:32:13.573Z,101813.22
2023-04-27T20:34:40.490Z,101813.13
2023-04-27T20:37:07.501Z,101813.97
2023-04-27T20:39:34.988Z,101813.91
2023-04-27T20:42:01.904Z,101812.13
2023-04-27T20:44:28.835Z,101808.63
2023-04-27T20:46:55.818Z,101811.22
2023-04-27T20:49:31.767Z,101818.13
2023-04-27T20:52:01.637Z,101813.69
2023-04-27T20:54:30.940Z,101812.75
2023-04-27T20:56:57.844Z,101810.03
2023-04-27T20:59:24.752Z,101808.22
2023-04-27T21:01:51.615Z,101814.25
2023-04-27T21:04:19.022Z,101815.84
2023-04-27T21:06:46.166Z,101817.63
2023-04-27T21:09:13.085Z,101811.47
2023-04-27T21:11:39.973Z,101814.94
2023-04-27T21:14:06.859Z,101815.75
2023-04-27T21:16:33.848Z,101815.72
2023-04-27T21:19:00.805Z,101817.41
2023-04-27T21:21:27.718Z,101815.63
2023-04-27T21:24:06.746Z,101813.81
2023-04-27T21:26:34.986Z,101815.50
2023-04-27T21:29:02.429Z,101819.81
2023-04-27T21:31:29.465Z,101815.41
2023-04-27T21:33:56.365Z,101809.25
2023-04-27T21:36:23.585Z,101815.28
2023-04-27T21:38:50.487Z,101807.44
2023-04-27T21:41:17.446Z,101814.28
2023-04-27T21:43:45.014Z,101804.69
2023-04-27T21:46:12.103Z,101804.66
2023-04-27T21:48:39.085Z,101811.53
2023-04-27T21:51:05.987Z,101804.53
2023-04-27T21:53:32.999Z,101802.75
2023-04-27T21:56:00.264Z,101804.41
2023-04-27T21:58:27.175Z,101805.19
2023-04-27T22:00:54.093Z,101800.72
2023-04-27T22:03:21.786Z,101808.44
2023-04-27T22:05:50.278Z,101797.81
2023-04-27T22:08:17.773Z,101805.63
2023-04-27T22:10:45.307Z,101800.19
2023-04-27T22:13:18.349Z,101812.38
2023-04-27T22:15:47.149Z,101811.34
2023-04-27T22:18:15.418Z,101805.09
2023-04-27T22:20:43.124Z,101806.75
2023-04-27T22:23:10.800Z,101806.66
2023-04-27T22:25:37.770Z,101809.09
2023-04-27T22:28:04.849Z,101811.81
2023-04-27T22:30:31.784Z,101810.00
2023-04-27T22:32:58.790Z,101809.13
2023-04-27T22:35:27.635Z,101809.94
2023-04-27T22:37:59.710Z,101808.97
2023-04-27T22:40:26.883Z,101808.94
2023-04-27T22:42:55.055Z,101803.69
2023-04-27T22:45:23.178Z,101809.69
2023-04-27T22:47:50.372Z,101806.03
2023-04-27T22:50:17.319Z,101805.13
2023-04-27T22:52:44.578Z,101805.81
2023-04-27T22:55:12.668Z,101810.88
2023-04-27T22:57:41.300Z,101802.13
2023-04-27T23:00:11.059Z,101803.81
2023-04-27T23:02:41.806Z,101807.19
2023-04-27T23:05:10.619Z,101805.41
2023-04-27T23:07:37.943Z,101798.47
2023-04-27T23:10:06.072Z,101798.41
2023-04-27T23:12:33.347Z,101792.28
2023-04-27T23:15:00.534Z,101786.06
2023-04-27T23:17:30.403Z,101798.16
2023-04-27T23:20:05.432Z,101796.41
2023-04-27T23:22:35.638Z,101788.63
2023-04-27T23:25:02.519Z,101796.47
2023-04-27T23:27:29.404Z,101793.03
2023-04-27T23:29:56.495Z,101784.34
2023-04-27T23:32:23.412Z,101786.97
2023-04-27T23:34:54.850Z,101786.16
2023-04-27T23:37:22.942Z,101787.88
2023-04-27T23:39:49.829Z,101789.63
2023-04-27T23:42:16.823Z,101780.88
2023-04-27T23:44:43.789Z,101781.81
2023-04-27T23:47:10.714Z,101774.88
2023-04-27T23:49:37.650Z,101777.50
2023-04-27T23:52:05.060Z,101780.94
2023-04-27T23:54:32.430Z,101777.34
2023-04-27T23:56:59.388Z,101777.38
2023-04-27T23:59:26.367Z,101768.66
